createdAt,value
2019-03-20T01:04:15.118Z,5.93
2019-03-20T01:09:18.013Z,7.00
2019-03-20T01:14:21.753Z,8.93
2019-03-20T01:19:24.769Z,7.50
2019-03-20T01:24:26.113Z,7.40
2019-03-20T01:29:27.432Z,6.00
2019-03-20T02:31:31.218Z,4.93
2019-03-20T02:36:37.846Z,6.03
2019-03-20T02:41:41.447Z,5.80
2019-03-20T02:46:43.322Z,10.77
2019-03-20T02:51:45.413Z,4.40
2019-03-20T02:56:47.293Z,4.27
2019-03-20T04:05:11.391Z,5.77
2019-03-20T04:10:15.278Z,7.50
2019-03-20T04:15:17.325Z,6.77
2019-03-20T04:20:18.678Z,5.73
2019-03-20T04:25:20.004Z,7.97
2019-03-20T05:33:41.073Z,7.93
2019-03-20T05:38:42.360Z,7.20
2019-03-20T05:43:44.422Z,7.70
2019-03-20T05:48:46.503Z,7.10
2019-03-20T05:53:47.799Z,6.43
2019-03-20T05:58:49.089Z,8.87
2019-03-20T07:00:58.269Z,10.13
2019-03-20T07:06:12.875Z,8.47
2019-03-20T07:11:13.974Z,9.50
2019-03-20T07:16:15.368Z,11.33
2019-03-20T07:21:18.728Z,12.33
2019-03-20T07:26:18.282Z,13.37
2019-03-20T08:34:41.448Z,6.93
2019-03-20T08:39:42.704Z,4.97
2019-03-20T08:44:43.997Z,8.03
2019-03-20T08:49:45.279Z,9.40
2019-03-20T08:54:46.555Z,7.13
2019-03-20T08:59:47.854Z,7.53
2019-03-20T10:01:52.797Z,3.90
2019-03-20T10:06:54.090Z,5.07
2019-03-20T10:11:57.572Z,5.23
2019-03-20T10:16:58.889Z,5.27
2019-03-20T10:22:00.178Z,6.70
2019-03-20T10:27:01.445Z,5.00
2019-03-20T11:35:21.868Z,4.40
2019-03-20T11:40:31.682Z,5.87
2019-03-20T11:45:32.992Z,4.47
2019-03-20T11:50:35.068Z,2.30
2019-03-20T11:55:36.401Z,3.50
2019-03-20T13:04:00.571Z,2.00
2019-03-20T13:09:03.659Z,4.23
2019-03-20T13:14:03.926Z,5.40
2019-03-20T13:19:05.260Z,5.90
2019-03-20T13:24:06.535Z,4.57
2019-03-20T13:29:07.828Z,5.57
2019-03-20T14:31:08.081Z,3.33
2019-03-20T14:36:09.391Z,5.17
2019-03-20T14:41:20.829Z,4.57
2019-03-20T14:46:11.940Z,4.47
2019-03-20T14:51:13.202Z,5.33
2019-03-20T14:56:14.497Z,3.40
2019-03-20T16:04:38.442Z,6.03
2019-03-20T16:09:39.716Z,8.17
2019-03-20T16:14:40.980Z,4.13
2019-03-20T16:19:42.281Z,3.03
2019-03-20T16:24:44.293Z,4.07
2019-03-20T16:29:45.579Z,5.80
2019-03-20T16:34:46.845Z,3.93
2019-03-20T16:39:48.112Z,3.07
2019-03-20T16:44:49.417Z,7.23
2019-03-20T16:49:51.433Z,3.43
2019-03-20T16:54:52.697Z,5.03
2019-03-20T16:59:53.972Z,3.60
2019-03-20T17:04:55.315Z,3.77
2019-03-20T17:09:56.716Z,4.07
2019-03-20T17:15:02.041Z,5.23
2019-03-20T17:20:05.447Z,4.20
2019-03-20T17:25:06.841Z,4.83
2019-03-20T17:30:12.362Z,5.57
2019-03-20T17:35:14.923Z,2.83
2019-03-20T17:40:18.345Z,5.23
2019-03-20T17:45:22.820Z,3.23
2019-03-20T17:50:28.794Z,4.53
2019-03-20T17:55:30.753Z,4.47
2019-03-20T18:06:01.643Z,5.37
2019-03-20T18:11:02.964Z,7.17
2019-03-20T18:16:04.337Z,3.87
2019-03-20T18:21:05.726Z,8.40
2019-03-20T18:26:07.019Z,7.37
2019-03-20T18:31:08.358Z,7.57
2019-03-20T18:36:09.823Z,5.33
2019-03-20T18:41:11.861Z,4.57
2019-03-20T18:46:13.250Z,5.70
2019-03-20T18:51:14.601Z,8.30
2019-03-20T18:56:16.160Z,6.30
2019-03-20T19:01:17.521Z,8.20
2019-03-20T19:06:20.608Z,5.00
2019-03-20T19:11:22.815Z,5.07
2019-03-20T19:16:24.893Z,7.03
2019-03-20T19:21:26.214Z,6.70
2019-03-20T19:26:38.241Z,5.83
2019-03-20T19:31:56.972Z,9.50
2019-03-20T19:36:59.031Z,5.97
2019-03-20T19:42:00.368Z,6.73
2019-03-20T19:47:01.709Z,11.40
2019-03-20T19:52:03.063Z,10.50
2019-03-20T19:57:04.420Z,7.13
2019-03-20T20:02:05.771Z,7.00
2019-03-20T20:07:07.859Z,7.87
2019-03-20T20:12:09.934Z,10.37
2019-03-20T20:17:12.037Z,6.03
2019-03-20T20:22:13.346Z,6.90
2019-03-20T20:27:14.684Z,9.40
2019-03-20T20:32:16.034Z,8.73
2019-03-20T20:37:17.325Z,6.67
2019-03-20T20:42:18.651Z,11.60
2019-03-20T20:47:20.108Z,6.87
2019-03-20T20:52:21.759Z,7.60
2019-03-20T20:57:23.149Z,10.00
2019-03-20T21:02:24.485Z,10.77
2019-03-20T21:07:26.640Z,10.13
2019-03-20T21:12:27.185Z,7.90
2019-03-20T21:17:28.518Z,8.30
2019-03-20T21:22:55.040Z,8.83
2019-03-20T21:34:25.625Z,11.43
2019-03-20T21:39:27.660Z,9.43
2019-03-20T21:51:04.936Z,11.13
2019-03-20T21:56:27.912Z,13.10
2019-03-20T22:07:22.121Z,8.80
2019-03-20T22:12:29.454Z,10.70
2019-03-20T22:23:22.914Z,12.15
2019-03-20T22:34:22.615Z,9.48
2019-03-20T22:46:03.817Z,12.52
2019-03-20T22:51:19.684Z,7.93
2019-03-20T23:33:54.946Z,7.83
2019-03-20T23:38:56.294Z,13.13
2019-03-20T23:43:57.596Z,9.70
2019-03-20T23:49:00.830Z,11.63
2019-03-20T23:54:02.159Z,8.23
2019-03-20T23:59:03.486Z,10.23
